createdAt,value
2017-11-26T00:00:47.976Z,95532.90
2017-11-26T00:02:29.774Z,95451.39
2017-11-26T00:04:08.377Z,95450.66
2017-11-26T00:05:49.877Z,95581.07
2017-11-26T00:07:30.091Z,95537.59
2017-11-26T00:09:12.195Z,95366.78
2017-11-26T00:10:52.473Z,95494.91
2017-11-26T00:12:32.488Z,95547.92
2017-11-26T00:14:13.684Z,95554.31
2017-11-26T00:16:02.478Z,95591.88
2017-11-26T00:17:44.101Z,95532.00
2017-11-26T00:19:28.988Z,95602.66
2017-11-26T00:21:14.700Z,95565.07
2017-11-26T00:22:57.202Z,95502.66
2017-11-26T00:24:37.296Z,95510.31
2017-11-26T00:26:17.967Z,95420.13
2017-11-26T00:27:56.381Z,95296.17
2017-11-26T00:29:38.073Z,95366.62
2017-11-26T00:31:23.577Z,95396.36
2017-11-26T00:33:02.289Z,95520.33
2017-11-26T00:34:41.482Z,95479.39
2017-11-26T00:36:22.070Z,95353.02
2017-11-26T00:38:00.966Z,95445.44
2017-11-26T00:39:39.562Z,95506.52
2017-11-26T00:41:20.363Z,95392.97
2017-11-26T00:43:01.084Z,95352.45
2017-11-26T00:44:39.964Z,95486.73
2017-11-26T00:46:24.140Z,95535.84
2017-11-26T00:48:04.151Z,95554.38
2017-11-26T00:49:43.925Z,95511.27
2017-11-26T00:51:23.499Z,95581.91
2017-11-26T00:53:03.778Z,95602.07
2017-11-26T00:54:43.074Z,95585.76
2017-11-26T00:56:22.483Z,95512.89
2017-11-26T00:58:00.576Z,95473.08
2017-11-26T00:59:39.695Z,95450.19
2017-11-26T01:01:22.408Z,95372.22
2017-11-26T01:03:03.002Z,95382.17
2017-11-26T01:04:42.315Z,95247.98
2017-11-26T01:06:22.514Z,95237.28
2017-11-26T01:08:03.317Z,95161.69
2017-11-26T01:09:42.126Z,95086.17
2017-11-26T01:11:22.421Z,95141.89
2017-11-26T01:13:02.637Z,95159.53
2017-11-26T01:14:42.846Z,95164.33
2017-11-26T01:16:22.176Z,95287.18
2017-11-26T01:18:01.643Z,95351.61
2017-11-26T01:19:42.139Z,95327.06
2017-11-26T01:21:23.839Z,95404.42
2017-11-26T01:23:03.134Z,95463.91
2017-11-26T01:24:42.744Z,95486.27
2017-11-26T01:26:26.048Z,95409.80
2017-11-26T01:28:06.144Z,95469.54
2017-11-26T01:29:47.445Z,95483.27
2017-11-26T01:31:26.812Z,95481.52
2017-11-26T01:33:08.351Z,95509.58
2017-11-26T01:34:48.538Z,95355.52
2017-11-26T01:36:27.440Z,95383.38
2017-11-26T01:38:06.137Z,95462.58
2017-11-26T01:39:47.632Z,95423.88
2017-11-26T01:41:28.038Z,95438.58
2017-11-26T01:43:07.938Z,95265.21
2017-11-26T01:44:47.235Z,95215.37
2017-11-26T01:46:26.039Z,95289.81
2017-11-26T01:48:06.837Z,95279.78
2017-11-26T01:49:45.839Z,95286.79
2017-11-26T01:51:25.433Z,95314.56
2017-11-26T01:53:04.139Z,95168.95
2017-11-26T01:54:43.738Z,95284.21
2017-11-26T01:56:23.957Z,95478.71
2017-11-26T01:58:04.438Z,95560.86
2017-11-26T01:59:43.568Z,95599.66
2017-11-26T02:01:24.869Z,95664.22
2017-11-26T02:03:05.854Z,95646.63
2017-11-26T02:04:44.621Z,95719.45
2017-11-26T02:06:24.536Z,95668.59
2017-11-26T02:08:05.271Z,95653.54
2017-11-26T02:09:45.586Z,95635.43
2017-11-26T02:11:27.328Z,95618.02
2017-11-26T02:13:13.063Z,95636.27
2017-11-26T02:14:52.724Z,95652.22
2017-11-26T02:16:31.727Z,95629.84
2017-11-26T02:18:12.119Z,95558.27
2017-11-26T02:19:52.419Z,95460.20
2017-11-26T02:21:33.067Z,95547.55
2017-11-26T02:23:16.878Z,95557.09
2017-11-26T02:25:02.639Z,95598.33
2017-11-26T02:26:50.938Z,95518.53
2017-11-26T02:28:31.934Z,95602.18
2017-11-26T02:30:12.722Z,95668.17
2017-11-26T02:32:39.317Z,95657.08
2017-11-26T02:34:37.911Z,95683.73
2017-11-26T02:36:20.924Z,95581.13
2017-11-26T02:38:00.019Z,95686.43
2017-11-26T02:39:41.829Z,95699.27
2017-11-26T02:41:22.142Z,95646.30
2017-11-26T02:43:05.633Z,95645.78
2017-11-26T02:44:45.446Z,95568.71
2017-11-26T02:47:57.176Z,95638.02
2017-11-26T02:49:38.259Z,95621.70
2017-11-26T02:51:19.063Z,95531.58
2017-11-26T02:53:00.749Z,95571.24
2017-11-26T02:54:44.354Z,95416.16
2017-11-26T02:56:23.686Z,95506.30
2017-11-26T02:58:03.495Z,95523.39
2017-11-26T02:59:43.782Z,95428.67
2017-11-26T03:01:23.159Z,95399.84
2017-11-26T03:03:01.687Z,95341.39
2017-11-26T03:04:41.972Z,95456.35
2017-11-26T03:06:23.463Z,95510.84
2017-11-26T03:08:02.379Z,95482.98
2017-11-26T03:09:42.777Z,95215.44
2017-11-26T03:11:23.563Z,95283.80
2017-11-26T03:13:06.200Z,95264.45
2017-11-26T03:14:50.181Z,95259.30
2017-11-26T03:18:08.660Z,95338.33
2017-11-26T03:19:49.381Z,95381.28
2017-11-26T03:21:29.882Z,95345.70
2017-11-26T03:23:09.799Z,95386.19
2017-11-26T03:24:48.762Z,95441.27
2017-11-26T03:26:27.969Z,95405.48
2017-11-26T03:28:07.772Z,95478.55
2017-11-26T03:29:49.267Z,95476.87
2017-11-26T03:31:28.980Z,95454.19
2017-11-26T03:33:10.671Z,95494.54
2017-11-26T03:34:51.265Z,95465.27
2017-11-26T03:36:31.567Z,95540.12
2017-11-26T03:38:10.269Z,95518.22
2017-11-26T03:39:50.080Z,95550.98
2017-11-26T03:41:30.584Z,95535.84
2017-11-26T03:45:21.463Z,95468.52
2017-11-26T03:47:02.793Z,95520.49
2017-11-26T03:48:44.286Z,95563.49
2017-11-26T03:50:23.590Z,95545.81
2017-11-26T03:52:04.296Z,95584.66
2017-11-26T03:53:43.194Z,95550.98
2017-11-26T03:55:25.512Z,95533.31
2017-11-26T03:57:04.595Z,95322.94
2017-11-26T03:58:43.609Z,95381.53
2017-11-26T04:00:23.603Z,95491.17
2017-11-26T04:02:02.906Z,95526.55
2017-11-26T04:03:43.533Z,95421.35
2017-11-26T04:05:23.009Z,95304.44
2017-11-26T04:07:02.414Z,95359.52
2017-11-26T04:08:41.922Z,95307.97
2017-11-26T04:10:22.021Z,95322.05
2017-11-26T04:12:02.619Z,95246.36
2017-11-26T04:13:43.544Z,95279.95
2017-11-26T04:15:24.221Z,95372.47
2017-11-26T04:17:06.216Z,95307.50
2017-11-26T04:18:47.125Z,95426.63
2017-11-26T04:20:28.819Z,95465.22
2017-11-26T04:22:11.727Z,95304.86
2017-11-26T04:23:53.639Z,95312.15
2017-11-26T04:25:32.703Z,95311.39
2017-11-26T04:27:16.999Z,95391.82
2017-11-26T04:28:59.018Z,95359.94
2017-11-26T04:30:40.501Z,95352.18
2017-11-26T04:32:24.500Z,95292.34
2017-11-26T04:34:03.394Z,95205.55
2017-11-26T04:35:43.293Z,95319.94
2017-11-26T04:37:23.591Z,95370.15
2017-11-26T04:39:01.679Z,95297.08
2017-11-26T04:40:43.599Z,95220.98
2017-11-26T04:42:25.303Z,95207.23
2017-11-26T04:44:06.408Z,95228.77
2017-11-26T04:45:46.990Z,95341.44
2017-11-26T04:47:28.191Z,95206.33
2017-11-26T04:49:06.821Z,95308.20
2017-11-26T04:50:46.699Z,95386.50
2017-11-26T04:52:28.702Z,95388.29
2017-11-26T04:54:08.492Z,95427.19
2017-11-26T04:55:49.094Z,95399.36
2017-11-26T04:57:28.989Z,95392.97
2017-11-26T04:59:07.784Z,95422.67
2017-11-26T05:00:48.797Z,95444.74
2017-11-26T05:02:28.782Z,95452.40
2017-11-26T05:04:08.302Z,95493.22
2017-11-26T05:05:48.498Z,95499.39
2017-11-26T05:07:28.525Z,95521.75
2017-11-26T05:09:08.305Z,95531.30
2017-11-26T05:10:49.384Z,95530.83
2017-11-26T05:12:28.700Z,95453.30
2017-11-26T05:14:10.297Z,95455.56
2017-11-26T05:15:50.786Z,95315.68
2017-11-26T05:17:31.285Z,95276.05
2017-11-26T05:19:11.393Z,95341.97
2017-11-26T05:20:52.312Z,95261.94
2017-11-26T05:22:32.499Z,95278.75
2017-11-26T05:24:12.726Z,95326.00
2017-11-26T05:25:51.825Z,95298.81
2017-11-26T05:27:32.497Z,95333.26
2017-11-26T05:29:11.309Z,95372.31
2017-11-26T05:30:50.401Z,95367.15
2017-11-26T05:32:30.111Z,95259.41
2017-11-26T05:34:09.601Z,95252.94
2017-11-26T05:35:50.426Z,95190.59
2017-11-26T05:37:29.814Z,95215.48
2017-11-26T05:39:08.812Z,95189.69
2017-11-26T05:40:47.900Z,95284.38
2017-11-26T05:42:26.616Z,95295.81
2017-11-26T05:44:05.599Z,95297.55
2017-11-26T05:45:44.409Z,95379.23
2017-11-26T05:47:24.603Z,95260.14
2017-11-26T05:49:03.803Z,95175.52
2017-11-26T05:50:43.902Z,95267.84
2017-11-26T05:52:24.516Z,95268.74
2017-11-26T05:54:04.613Z,95322.05
2017-11-26T05:55:43.903Z,95312.94
2017-11-26T05:57:23.905Z,95329.36
2017-11-26T05:59:02.930Z,95318.57
2017-11-26T06:00:44.096Z,95193.59
2017-11-26T06:02:22.813Z,95215.91
2017-11-26T06:04:03.214Z,95199.64
2017-11-26T06:05:42.116Z,95241.14
2017-11-26T06:07:23.047Z,95331.94
2017-11-26T06:09:03.438Z,95293.96
2017-11-26T06:10:43.443Z,95152.38
2017-11-26T06:12:23.043Z,95182.86
2017-11-26T06:14:01.950Z,95124.48
2017-11-26T06:15:40.957Z,95071.14
2017-11-26T06:17:20.354Z,95222.44
2017-11-26T06:18:59.869Z,95316.83
2017-11-26T06:22:16.664Z,95223.61
2017-11-26T06:23:55.965Z,95251.98
2017-11-26T06:25:37.566Z,95359.47
2017-11-26T06:27:17.269Z,95365.83
2017-11-26T06:28:56.969Z,95235.19
2017-11-26T06:30:36.897Z,95298.02
2017-11-26T06:32:17.783Z,95301.39
2017-11-26T06:33:58.618Z,95298.28
2017-11-26T06:37:12.988Z,95337.06
2017-11-26T06:38:51.889Z,95288.11
2017-11-26T06:40:32.022Z,95392.55
2017-11-26T06:42:11.694Z,95309.66
2017-11-26T06:43:51.593Z,95367.20
2017-11-26T06:45:34.302Z,95251.98
2017-11-26T06:47:12.909Z,95307.92
2017-11-26T06:48:52.308Z,95323.73
2017-11-26T06:50:34.503Z,95260.20
2017-11-26T06:52:14.816Z,95206.80
2017-11-26T06:53:53.615Z,95341.02
2017-11-26T06:55:33.312Z,95342.65
2017-11-26T06:57:11.937Z,95281.63
2017-11-26T06:58:54.321Z,95358.71
2017-11-26T07:00:33.518Z,95421.44
2017-11-26T07:02:12.923Z,95395.61
2017-11-26T07:03:52.919Z,95463.73
2017-11-26T07:05:33.323Z,95410.95
2017-11-26T07:07:16.739Z,95300.55
2017-11-26T07:08:55.326Z,95185.75
2017-11-26T07:10:35.442Z,95305.77
2017-11-26T07:12:17.019Z,95397.63
2017-11-26T07:13:57.121Z,95445.44
2017-11-26T07:15:38.400Z,95503.23
2017-11-26T07:17:18.688Z,95397.87
2017-11-26T07:18:58.383Z,95417.96
2017-11-26T07:20:38.004Z,95506.61
2017-11-26T07:22:16.775Z,95515.64
2017-11-26T07:23:55.557Z,95501.50
2017-11-26T07:25:41.656Z,95550.55
2017-11-26T07:27:21.978Z,95605.77
2017-11-26T07:29:01.865Z,95538.06
2017-11-26T07:30:42.078Z,95527.77
2017-11-26T07:32:23.232Z,95600.21
2017-11-26T07:34:02.581Z,95660.92
2017-11-26T07:35:40.315Z,95594.57
2017-11-26T07:37:18.796Z,95581.55
2017-11-26T07:38:57.879Z,95666.99
2017-11-26T07:40:38.698Z,95526.39
2017-11-26T07:42:18.874Z,95529.14
2017-11-26T07:43:58.703Z,95545.81
2017-11-26T07:45:38.068Z,95593.30
2017-11-26T07:47:20.073Z,95467.02
2017-11-26T07:49:00.074Z,95520.44
2017-11-26T07:50:40.778Z,95544.07
2017-11-26T07:52:20.377Z,95520.80
2017-11-26T07:53:59.178Z,95434.25
2017-11-26T07:55:40.683Z,95411.11
2017-11-26T07:57:18.042Z,95454.92
2017-11-26T07:58:54.835Z,95402.90
2017-11-26T08:00:33.774Z,95403.73
2017-11-26T08:02:13.982Z,95395.72
2017-11-26T08:03:53.208Z,95487.78
2017-11-26T08:05:32.409Z,95434.89
2017-11-26T08:07:10.717Z,95495.86
2017-11-26T08:08:49.829Z,95549.99
2017-11-26T08:10:29.334Z,95593.73
2017-11-26T08:12:10.139Z,95519.06
2017-11-26T08:13:49.842Z,95549.41
2017-11-26T08:15:30.653Z,95583.34
2017-11-26T08:17:09.645Z,95622.64
2017-11-26T08:18:48.648Z,95594.99
2017-11-26T08:20:27.650Z,95637.70
2017-11-26T08:22:06.541Z,95589.83
2017-11-26T08:23:45.243Z,95618.01
2017-11-26T08:25:22.373Z,95666.09
2017-11-26T08:27:01.072Z,95648.52
2017-11-26T08:28:39.195Z,95638.55
2017-11-26T08:30:19.642Z,95655.34
2017-11-26T08:31:58.753Z,95556.16
2017-11-26T08:33:38.034Z,95549.30
2017-11-26T08:35:17.732Z,95477.81
2017-11-26T08:36:58.631Z,95577.41
2017-11-26T08:38:37.238Z,95634.16
2017-11-26T08:40:16.046Z,95636.01
2017-11-26T08:41:55.834Z,95545.02
2017-11-26T08:43:35.542Z,95529.92
2017-11-26T08:45:17.639Z,95490.41
2017-11-26T08:46:56.638Z,95559.17
2017-11-26T08:48:36.546Z,95400.69
2017-11-26T08:50:16.246Z,95326.36
2017-11-26T08:51:54.940Z,95406.43
2017-11-26T08:53:33.741Z,95543.70
2017-11-26T08:55:14.873Z,95666.63
2017-11-26T08:56:54.447Z,95536.38
2017-11-26T08:58:37.449Z,95505.40
2017-11-26T09:00:19.350Z,95624.75
2017-11-26T09:02:00.760Z,95725.25
2017-11-26T09:03:42.265Z,95727.31
2017-11-26T09:05:21.976Z,95734.23
2017-11-26T09:07:02.276Z,95666.09
2017-11-26T09:08:54.372Z,95625.28
2017-11-26T09:10:34.077Z,95642.81
2017-11-26T09:12:13.777Z,95620.91
2017-11-26T09:13:55.776Z,95647.61
2017-11-26T09:15:35.573Z,95541.59
2017-11-26T09:17:16.184Z,95596.36
2017-11-26T09:18:54.678Z,95620.06
2017-11-26T09:20:33.576Z,95424.97
2017-11-26T09:22:13.881Z,95463.73
2017-11-26T09:23:53.677Z,95453.07
2017-11-26T09:25:35.394Z,95388.54
2017-11-26T09:27:17.486Z,95499.39
2017-11-26T09:28:59.605Z,95458.57
2017-11-26T09:30:41.768Z,95511.88
2017-11-26T09:32:21.557Z,95632.16
2017-11-26T09:34:01.652Z,95520.44
2017-11-26T09:35:41.351Z,95591.62
2017-11-26T09:37:19.953Z,95516.31
2017-11-26T09:38:58.762Z,95586.03
2017-11-26T09:40:40.967Z,95755.89
2017-11-26T09:42:22.458Z,95895.20
2017-11-26T09:44:02.550Z,95928.83
2017-11-26T09:45:42.747Z,95847.41
2017-11-26T09:47:24.251Z,95831.20
2017-11-26T09:49:03.648Z,95836.53
2017-11-26T09:50:44.501Z,95870.57
2017-11-26T09:52:22.444Z,95885.22
2017-11-26T09:54:04.869Z,95637.70
2017-11-26T09:55:49.065Z,95699.38
2017-11-26T09:57:31.150Z,95799.38
2017-11-26T09:59:11.151Z,95792.03
2017-11-26T10:00:54.747Z,95751.98
2017-11-26T10:02:35.332Z,95783.04
2017-11-26T10:04:19.453Z,95820.46
2017-11-26T10:06:03.201Z,95841.28
2017-11-26T10:07:46.187Z,95846.04
2017-11-26T10:09:30.513Z,95781.77
2017-11-26T10:11:17.897Z,95794.20
2017-11-26T10:13:04.018Z,95854.28
2017-11-26T10:14:47.797Z,95908.22
2017-11-26T10:16:33.135Z,95891.77
2017-11-26T10:18:15.823Z,95747.34
2017-11-26T10:19:59.889Z,95854.70
2017-11-26T10:21:43.536Z,95909.97
2017-11-26T10:23:22.516Z,95914.61
2017-11-26T10:25:08.010Z,95858.66
2017-11-26T10:26:55.346Z,95883.16
2017-11-26T10:28:38.265Z,95899.03
2017-11-26T10:30:31.459Z,95944.58
2017-11-26T10:32:32.377Z,95923.39
2017-11-26T10:34:18.087Z,95872.00
2017-11-26T10:36:07.167Z,95836.53
2017-11-26T10:37:51.940Z,95832.34
2017-11-26T10:39:40.847Z,95759.38
2017-11-26T10:41:36.551Z,95819.72
2017-11-26T10:43:21.967Z,95895.36
2017-11-26T10:45:10.101Z,95827.06
2017-11-26T10:47:03.528Z,95783.57
2017-11-26T10:48:53.640Z,95903.47
2017-11-26T10:50:42.822Z,95949.30
2017-11-26T10:52:29.245Z,95836.17
2017-11-26T10:54:17.458Z,95871.58
2017-11-26T10:56:07.966Z,95790.96
2017-11-26T10:57:52.926Z,95952.02
2017-11-26T10:59:40.818Z,95802.55
2017-11-26T11:01:35.324Z,95892.72
2017-11-26T11:03:30.319Z,95800.91
2017-11-26T11:05:16.940Z,95945.05
2017-11-26T11:07:03.032Z,96026.22
2017-11-26T11:08:49.972Z,96079.03
2017-11-26T11:10:36.756Z,96000.77
2017-11-26T11:12:24.426Z,95926.78
2017-11-26T11:14:15.717Z,95864.66
2017-11-26T11:16:02.373Z,95907.80
2017-11-26T11:17:51.307Z,95912.19
2017-11-26T11:19:39.524Z,95912.55
2017-11-26T11:21:33.038Z,95857.73
2017-11-26T11:23:22.434Z,95987.33
2017-11-26T11:25:10.949Z,95994.83
2017-11-26T11:27:04.022Z,96000.72
2017-11-26T11:28:58.653Z,96038.72
2017-11-26T11:30:47.755Z,95924.76
2017-11-26T11:32:44.445Z,95815.11
2017-11-26T11:34:29.123Z,95762.86
2017-11-26T11:36:21.384Z,95671.06
2017-11-26T11:38:12.264Z,95792.62
2017-11-26T11:40:01.469Z,95956.80
2017-11-26T11:41:59.200Z,95975.69
2017-11-26T11:43:49.464Z,95923.81
2017-11-26T11:45:40.370Z,95912.98
2017-11-26T11:47:29.720Z,95960.98
2017-11-26T11:49:21.758Z,95973.61
2017-11-26T11:51:09.374Z,95999.87
2017-11-26T11:53:02.862Z,95968.33
2017-11-26T11:54:51.963Z,95986.95
2017-11-26T11:56:36.873Z,95953.58
2017-11-26T11:58:28.361Z,95922.17
2017-11-26T12:00:19.568Z,95925.61
2017-11-26T12:02:13.562Z,96014.14
2017-11-26T12:04:05.079Z,96096.72
2017-11-26T12:05:53.673Z,96137.76
2017-11-26T12:07:44.245Z,96108.27
2017-11-26T12:09:33.757Z,96107.61
2017-11-26T12:11:21.558Z,96056.48
2017-11-26T12:13:07.254Z,96067.34
2017-11-26T12:15:02.764Z,95937.70
2017-11-26T12:17:01.557Z,95836.11
2017-11-26T12:18:54.773Z,95901.39
2017-11-26T12:20:47.768Z,95900.54
2017-11-26T12:22:33.061Z,95864.66
2017-11-26T12:24:23.009Z,95875.48
2017-11-26T12:26:12.480Z,95883.77
2017-11-26T12:28:00.975Z,95997.41
2017-11-26T12:29:48.905Z,96009.06
2017-11-26T12:31:41.920Z,95977.48
2017-11-26T12:33:39.398Z,96059.18
2017-11-26T12:35:25.812Z,95964.47
2017-11-26T12:37:16.294Z,95864.76
2017-11-26T12:39:08.264Z,95937.66
2017-11-26T12:40:58.902Z,95846.52
2017-11-26T12:42:49.313Z,95876.86
2017-11-26T12:44:37.910Z,96001.24
2017-11-26T12:46:41.206Z,95935.14
2017-11-26T12:48:28.136Z,95943.67
2017-11-26T12:50:23.519Z,96007.69
2017-11-26T12:52:13.808Z,96008.54
2017-11-26T12:55:54.110Z,95927.77
2017-11-26T12:57:46.703Z,95871.58
2017-11-26T12:59:39.302Z,95993.92
2017-11-26T13:01:30.109Z,95968.80
2017-11-26T13:03:28.706Z,96020.61
2017-11-26T13:05:27.205Z,96005.10
2017-11-26T13:07:20.553Z,96182.77
2017-11-26T13:09:16.212Z,96287.47
2017-11-26T13:11:25.206Z,96284.45
2017-11-26T13:13:21.606Z,96000.34
2017-11-26T13:15:11.603Z,95993.98
2017-11-26T13:17:00.304Z,96086.38
2017-11-26T13:18:57.304Z,96260.33
2017-11-26T13:21:01.099Z,96273.64
2017-11-26T13:22:50.583Z,96284.55
2017-11-26T13:24:42.735Z,96270.23
2017-11-26T13:26:38.109Z,96293.19
2017-11-26T13:28:29.104Z,96254.33
2017-11-26T13:30:27.390Z,96359.03
2017-11-26T13:32:25.731Z,96266.37
2017-11-26T13:34:20.537Z,96349.06
2017-11-26T13:36:16.305Z,96265.84
2017-11-26T13:38:09.200Z,96353.73
2017-11-26T13:40:03.165Z,96390.07
2017-11-26T13:41:56.899Z,96372.30
2017-11-26T13:43:56.693Z,96337.30
2017-11-26T13:46:00.106Z,96312.64
2017-11-26T13:47:48.992Z,96298.77
2017-11-26T13:49:40.528Z,96229.63
2017-11-26T13:51:40.632Z,96168.09
2017-11-26T13:53:33.093Z,96276.38
2017-11-26T13:55:18.431Z,96314.86
2017-11-26T13:57:06.133Z,96294.92
2017-11-26T13:58:56.467Z,96332.58
2017-11-26T14:00:48.410Z,96242.20
2017-11-26T14:02:43.397Z,96212.80
2017-11-26T14:04:28.202Z,96339.46
2017-11-26T14:06:20.286Z,96315.71
2017-11-26T14:08:15.014Z,96279.49
2017-11-26T14:10:05.662Z,96413.45
2017-11-26T14:11:59.830Z,96467.30
2017-11-26T14:13:50.894Z,96387.52
2017-11-26T14:15:45.616Z,96270.39
2017-11-26T14:17:46.952Z,96337.87
2017-11-26T14:19:43.880Z,96283.70
2017-11-26T14:23:33.985Z,96186.69
2017-11-26T14:25:32.786Z,96112.84
2017-11-26T14:27:25.968Z,96132.28
2017-11-26T14:29:15.773Z,96178.99
2017-11-26T14:31:17.237Z,96242.95
2017-11-26T14:33:14.489Z,96098.14
2017-11-26T14:35:07.484Z,95979.42
2017-11-26T14:37:08.282Z,95983.33
2017-11-26T14:38:58.261Z,96094.73
2017-11-26T14:41:01.132Z,96223.65
2017-11-26T14:43:11.717Z,96246.22
2017-11-26T14:44:59.322Z,96289.31
2017-11-26T14:48:59.894Z,96095.16
2017-11-26T14:50:47.488Z,96109.14
2017-11-26T14:52:36.736Z,96175.19
2017-11-26T14:56:34.906Z,96046.78
2017-11-26T14:58:21.595Z,96105.07
2017-11-26T15:00:07.638Z,96105.97
2017-11-26T15:02:00.575Z,96187.35
2017-11-26T15:03:50.741Z,96207.64
2017-11-26T15:05:43.341Z,96047.16
2017-11-26T15:09:35.149Z,96029.09
2017-11-26T15:11:31.654Z,96137.86
2017-11-26T15:13:23.934Z,96234.50
2017-11-26T15:15:18.547Z,96156.59
2017-11-26T15:17:21.516Z,96187.22
2017-11-26T15:19:17.938Z,96305.04
2017-11-26T15:21:08.775Z,96171.16
2017-11-26T15:23:01.013Z,96257.39
2017-11-26T15:24:47.742Z,96276.00
2017-11-26T15:26:48.311Z,96204.52
2017-11-26T15:28:35.070Z,96314.91
2017-11-26T15:30:32.140Z,96286.77
2017-11-26T15:32:18.758Z,96321.48
2017-11-26T15:34:13.065Z,96282.98
2017-11-26T15:36:13.844Z,96308.82
2017-11-26T15:38:01.946Z,96313.69
2017-11-26T15:39:50.543Z,96385.91
2017-11-26T15:41:39.501Z,96467.34
2017-11-26T15:43:32.040Z,96281.66
2017-11-26T15:45:32.545Z,96254.84
2017-11-26T15:47:23.871Z,96343.59
2017-11-26T15:49:22.230Z,96393.67
2017-11-26T15:51:19.351Z,96317.94
2017-11-26T15:53:04.831Z,96228.05
2017-11-26T15:54:56.637Z,96288.09
2017-11-26T15:56:47.932Z,96115.55
2017-11-26T15:58:38.329Z,96179.52
2017-11-26T16:00:36.181Z,96030.47
2017-11-26T16:02:28.727Z,95949.55
2017-11-26T16:04:33.931Z,95952.19
2017-11-26T16:08:45.037Z,96076.91
2017-11-26T16:10:49.743Z,96177.30
2017-11-26T16:12:46.471Z,96139.31
2017-11-26T16:14:46.926Z,96246.02
2017-11-26T16:16:43.335Z,96304.05
2017-11-26T16:18:42.242Z,96286.77
2017-11-26T16:20:37.961Z,96199.81
2017-11-26T16:22:28.926Z,96199.86
2017-11-26T16:24:24.128Z,96215.81
2017-11-26T16:26:11.476Z,96226.61
2017-11-26T16:28:13.179Z,96099.04
2017-11-26T16:30:03.976Z,96014.35
2017-11-26T16:31:59.022Z,96089.13
2017-11-26T16:33:51.999Z,95967.69
2017-11-26T16:35:39.605Z,95965.16
2017-11-26T16:37:30.529Z,95991.97
2017-11-26T16:39:21.207Z,96036.89
2017-11-26T16:41:12.211Z,96116.92
2017-11-26T16:45:09.032Z,96108.66
2017-11-26T16:47:04.015Z,96208.06
2017-11-26T16:48:55.622Z,96143.95
2017-11-26T16:50:42.935Z,96010.91
2017-11-26T16:52:38.129Z,96054.95
2017-11-26T16:56:31.930Z,96035.52
2017-11-26T16:58:24.229Z,96057.96
2017-11-26T17:00:12.708Z,96097.24
2017-11-26T17:02:13.763Z,96062.56
2017-11-26T17:04:05.690Z,95945.20
2017-11-26T17:06:00.890Z,96005.81
2017-11-26T17:07:56.790Z,96029.58
2017-11-26T17:09:54.293Z,96073.19
2017-11-26T17:11:45.980Z,96020.80
2017-11-26T17:13:37.994Z,95872.63
2017-11-26T17:15:32.894Z,95883.77
2017-11-26T17:17:22.984Z,95893.36
2017-11-26T17:19:16.789Z,96018.21
2017-11-26T17:21:07.033Z,96009.64
2017-11-26T17:23:21.882Z,96083.00
2017-11-26T17:25:20.692Z,96048.39
2017-11-26T17:27:13.454Z,95876.43
2017-11-26T17:29:02.783Z,95820.02
2017-11-26T17:30:56.490Z,95848.95
2017-11-26T17:32:47.390Z,95935.61
2017-11-26T17:34:38.381Z,95939.50
2017-11-26T17:40:42.182Z,96019.95
2017-11-26T17:42:34.379Z,95903.71
2017-11-26T17:44:35.075Z,95964.57
2017-11-26T17:46:28.011Z,96038.59
2017-11-26T17:50:18.081Z,96178.09
2017-11-26T17:52:08.291Z,96227.04
2017-11-26T17:54:08.879Z,96198.06
2017-11-26T17:55:59.585Z,96194.62
2017-11-26T17:57:50.778Z,96188.86
2017-11-26T17:59:39.888Z,96105.07
2017-11-26T18:01:29.088Z,96109.98
2017-11-26T18:03:30.292Z,96090.41
2017-11-26T18:05:25.198Z,96185.08
2017-11-26T18:07:19.516Z,96132.76
2017-11-26T18:09:30.989Z,96089.61
2017-11-26T18:12:01.813Z,95935.27
2017-11-26T18:15:46.990Z,95869.62
2017-11-26T18:17:46.005Z,95932.55
2017-11-26T18:19:41.118Z,95822.52
2017-11-26T18:21:31.940Z,95892.45
2017-11-26T18:23:33.071Z,95939.95
2017-11-26T18:25:31.915Z,96007.42
2017-11-26T18:27:21.493Z,95981.06
2017-11-26T18:29:14.711Z,95963.67
2017-11-26T18:31:06.805Z,95837.20
2017-11-26T18:33:21.062Z,95848.05
2017-11-26T18:35:10.828Z,95916.20
2017-11-26T18:37:08.726Z,95856.66
2017-11-26T18:39:00.877Z,95833.34
2017-11-26T18:40:56.209Z,95809.14
2017-11-26T18:42:42.028Z,95863.58
2017-11-26T18:44:40.036Z,95780.67
2017-11-26T18:46:29.669Z,95826.38
2017-11-26T18:48:16.445Z,95946.42
2017-11-26T18:51:52.850Z,95760.48
2017-11-26T18:53:42.410Z,95775.52
2017-11-26T18:55:31.328Z,95700.05
2017-11-26T18:57:17.840Z,95847.34
2017-11-26T19:00:40.749Z,95779.40
2017-11-26T19:02:32.408Z,95846.67
2017-11-26T19:04:28.596Z,95900.27
2017-11-26T19:06:24.799Z,95881.34
2017-11-26T19:08:22.324Z,95998.05
2017-11-26T19:12:09.863Z,95955.56
2017-11-26T19:13:58.362Z,96007.00
2017-11-26T19:15:48.045Z,96028.55
2017-11-26T19:17:35.325Z,96114.22
2017-11-26T19:19:25.631Z,96008.64
2017-11-26T19:21:16.363Z,96058.44
2017-11-26T19:23:02.811Z,96045.88
2017-11-26T19:24:48.898Z,96062.77
2017-11-26T19:26:39.513Z,96073.56
2017-11-26T19:28:23.118Z,95979.18
2017-11-26T19:30:08.592Z,95932.63
2017-11-26T19:31:53.624Z,95839.05
2017-11-26T19:33:38.155Z,95777.38
2017-11-26T19:35:22.323Z,95798.88
2017-11-26T19:37:11.590Z,95718.64
2017-11-26T19:39:03.221Z,95823.92
2017-11-26T19:40:50.224Z,95876.01
2017-11-26T19:42:37.087Z,95984.18
2017-11-26T19:44:26.878Z,96051.45
2017-11-26T19:46:12.897Z,96075.36
2017-11-26T19:47:56.144Z,96048.05
2017-11-26T19:49:45.016Z,95995.83
2017-11-26T19:51:36.689Z,95822.10
2017-11-26T19:53:23.215Z,95888.97
2017-11-26T19:55:09.016Z,95735.87
2017-11-26T19:56:56.310Z,95834.67
2017-11-26T19:58:43.004Z,95679.81
2017-11-26T20:00:36.404Z,95795.39
2017-11-26T20:02:22.015Z,95806.98
2017-11-26T20:04:08.528Z,95861.89
2017-11-26T20:06:02.887Z,95958.91
2017-11-26T20:07:49.921Z,95905.93
2017-11-26T20:09:38.425Z,95961.09
2017-11-26T20:11:32.299Z,95904.08
2017-11-26T20:13:31.378Z,95744.58
2017-11-26T20:15:26.402Z,95866.27
2017-11-26T20:17:28.472Z,95887.66
2017-11-26T20:19:24.956Z,95879.50
2017-11-26T20:21:27.277Z,95804.02
2017-11-26T20:23:29.415Z,95743.15
2017-11-26T20:25:25.276Z,95805.34
2017-11-26T20:27:53.788Z,95664.34
2017-11-26T20:29:42.362Z,95826.75
2017-11-26T20:31:38.190Z,95779.88
2017-11-26T20:33:32.765Z,95752.33
2017-11-26T20:35:31.491Z,95762.54
2017-11-26T20:37:37.514Z,95980.22
2017-11-26T20:39:32.247Z,96014.77
2017-11-26T20:41:24.081Z,96128.84
2017-11-26T20:43:18.044Z,96215.81
2017-11-26T20:45:15.452Z,96083.95
2017-11-26T20:47:15.112Z,96035.09
2017-11-26T20:49:08.209Z,96080.03
2017-11-26T20:51:01.057Z,96012.66
2017-11-26T20:53:10.017Z,96021.28
2017-11-26T20:55:15.056Z,96075.22
2017-11-26T20:57:10.388Z,96081.30
2017-11-26T20:59:15.970Z,96083.95
2017-11-26T21:01:08.909Z,95951.60
2017-11-26T21:03:00.231Z,95876.91
2017-11-26T21:05:06.184Z,95859.34
2017-11-26T21:06:58.532Z,96000.22
2017-11-26T21:08:53.523Z,95841.59
2017-11-26T21:11:03.373Z,95867.40
2017-11-26T21:13:20.010Z,96009.64
2017-11-26T21:15:14.781Z,95972.39
2017-11-26T21:17:10.835Z,95895.05
2017-11-26T21:19:06.095Z,95955.62
2017-11-26T21:21:01.862Z,96013.92
2017-11-26T21:22:54.380Z,96067.48
2017-11-26T21:24:53.212Z,96109.89
2017-11-26T21:26:44.483Z,96105.87
2017-11-26T21:28:30.547Z,96105.92
2017-11-26T21:30:24.804Z,95875.59